Time;durP1;ratioP1;P1;durP2;ratioP2;P2;SDS_P1;SDS_P2;PMS_P1;PMS_P2;Temp;Humidity;BMP_temperature;BMP_pressure;BME280_temperature;BME280_humidity;BME280_pressure;Samples;Min_cycle;Max_cycle;Signal;HPM_P1;HPM_P2
2021/12/19 00:02:18;;;;;;;15.90;10.27;;;;;;;2.41;75.99;101084.25;1475845;86;21828;-81
2021/12/19 00:04:55;;;;;;;21.63;11.00;;;;;;;2.39;76.05;101074.84;1472825;87;21709;-83
2021/12/19 00:19:05;;;;;;;17.57;11.43;;;;;;;2.29;76.78;101064.46;1401869;89;21370;-81
2021/12/19 00:21:32;;;;;;;17.23;11.07;;;;;;;2.28;77.22;101055.78;1439267;90;23931;-80
2021/12/19 00:24:00;;;;;;;21.90;11.73;;;;;;;2.25;77.29;101059.87;1395691;93;21776;-80
2021/12/19 00:26:27;;;;;;;16.87;11.10;;;;;;;2.24;77.45;101056.41;1368282;94;22633;-80
2021/12/19 00:28:54;;;;;;;18.57;10.60;;;;;;;2.21;77.54;101051.32;1442760;90;23703;-81
2021/12/19 00:31:22;;;;;;;19.43;11.37;;;;;;;2.21;77.54;101051.32;1421166;90;21956;-80
2021/12/19 00:33:49;;;;;;;20.63;11.13;;;;;;;2.23;77.69;101050.78;1431690;90;21854;-80
2021/12/19 00:36:16;;;;;;;21.67;12.57;;;;;;;2.23;77.63;101050.78;1421149;92;22688;-80
2021/12/19 00:38:43;;;;;;;20.60;10.00;;;;;;;2.30;78.06;101046.55;1419355;92;21764;-81
2021/12/19 00:41:11;;;;;;;19.00;9.53;;;;;;;2.30;78.06;101046.55;1422209;92;22039;-80
2021/12/19 00:46:12;;;;;;;15.55;9.23;;;;;;;2.38;77.11;101032.63;1432317;90;22003;-81
2021/12/19 00:53:43;;;;;;;16.45;8.45;;;;;;;2.43;76.92;101038.00;1391813;93;22282;-81
2021/12/19 00:56:12;;;;;;;16.80;8.87;;;;;;;2.46;76.93;101044.37;1482186;87;21381;-81
2021/12/19 00:58:39;;;;;;;16.23;9.20;;;;;;;2.47;76.58;101043.91;1407358;87;21611;-81
2021/12/19 01:01:08;;;;;;;17.80;9.33;;;;;;;2.51;76.69;101028.46;1569228;87;21518;-82
2021/12/19 01:03:37;;;;;;;13.27;8.67;;;;;;;2.50;76.59;101020.22;1454908;87;21726;-82
2021/12/19 01:06:18;;;;;;;12.30;7.50;;;;;;;2.46;76.82;101020.02;1431839;86;21792;-81
2021/12/19 01:12:38;;;;;;;24.05;10.53;;;;;;;2.36;76.75;101020.97;1486361;88;21842;-81
2021/12/19 01:15:09;;;;;;;16.80;8.40;;;;;;;2.36;77.02;101016.19;1478463;87;21360;-81
2021/12/19 01:17:37;;;;;;;19.40;9.70;;;;;;;2.29;77.54;101005.69;1409415;86;21758;-83
2021/12/19 01:20:10;;;;;;;24.40;9.77;;;;;;;2.25;77.42;101009.77;1403588;86;21316;-82
2021/12/19 01:22:37;;;;;;;15.73;9.53;;;;;;;2.24;77.35;101004.18;1397109;89;22543;-81
2021/12/19 01:25:05;;;;;;;14.60;9.23;;;;;;;2.22;77.40;100996.87;1448506;88;22789;-82
2021/12/19 01:27:32;;;;;;;17.77;10.37;;;;;;;2.20;77.55;100988.27;1477425;88;21756;-81
2021/12/19 01:29:59;;;;;;;18.87;9.27;;;;;;;2.18;77.57;100983.58;1477256;88;21811;-81
2021/12/19 01:32:27;;;;;;;15.37;8.43;;;;;;;2.15;77.83;100978.98;1471828;88;21785;-81
2021/12/19 01:34:54;;;;;;;15.03;9.27;;;;;;;2.14;77.71;100977.30;1468022;87;21687;-81
2021/12/19 01:37:21;;;;;;;13.07;8.30;;;;;;;2.16;77.58;100977.61;1472786;86;23604;-82
2021/12/19 01:39:49;;;;;;;16.73;9.43;;;;;;;2.14;78.18;100981.22;1487193;86;21696;-81
2021/12/19 01:42:19;;;;;;;17.50;9.03;;;;;;;2.13;78.22;100971.25;1475553;87;21632;-82
2021/12/19 01:44:47;;;;;;;15.57;8.83;;;;;;;2.10;78.09;100971.41;1481168;87;21970;-82
2021/12/19 01:47:15;;;;;;;14.70;10.33;;;;;;;2.06;78.23;100969.86;1485037;87;22706;-82
2021/12/19 01:49:42;;;;;;;18.47;10.60;;;;;;;2.02;78.32;100969.66;1487833;87;21774;-82
2021/12/19 01:52:11;;;;;;;23.67;11.60;;;;;;;1.94;78.83;100962.20;1483232;87;21698;-81
2021/12/19 01:54:38;;;;;;;17.67;8.70;;;;;;;1.88;78.97;100956.47;1484702;87;21720;-82
2021/12/19 01:57:05;;;;;;;16.47;9.90;;;;;;;1.82;79.22;100948.95;1482048;87;21769;-83
2021/12/19 01:59:32;;;;;;;20.30;10.40;;;;;;;1.77;79.55;100953.09;1487559;87;21667;-82
2021/12/19 02:01:59;;;;;;;18.17;10.97;;;;;;;1.71;79.95;100938.59;1485904;87;21661;-82
2021/12/19 02:04:30;;;;;;;20.90;10.87;;;;;;;1.66;80.40;100945.80;1487286;87;21701;-82
2021/12/19 02:06:56;;;;;;;17.07;11.00;;;;;;;1.64;80.57;100938.54;1488904;87;21664;-82
2021/12/19 02:09:24;;;;;;;18.40;11.47;;;;;;;1.58;80.93;100934.47;1480700;87;21617;-82
2021/12/19 02:11:53;;;;;;;20.90;11.80;;;;;;;1.59;80.58;100926.17;1488685;87;21567;-82
2021/12/19 02:14:20;;;;;;;18.73;11.37;;;;;;;1.59;80.63;100913.13;1483575;87;21537;-81
2021/12/19 02:16:48;;;;;;;23.33;12.23;;;;;;;1.62;80.61;100915.58;1481452;87;22156;-81
2021/12/19 02:19:15;;;;;;;22.67;12.60;;;;;;;1.60;80.78;100906.98;1495709;87;21763;-81
2021/12/19 02:21:42;;;;;;;16.93;11.33;;;;;;;1.57;81.06;100896.70;1486615;87;21543;-81
2021/12/19 02:24:10;;;;;;;19.03;11.97;;;;;;;1.55;81.02;100895.93;1490122;87;21789;-81
2021/12/19 02:26:40;;;;;;;22.70;11.57;;;;;;;1.54;81.04;100896.86;1494370;87;21783;-81
2021/12/19 02:29:07;;;;;;;21.53;11.13;;;;;;;1.54;80.76;100894.25;1484481;87;22349;-81
2021/12/19 02:31:35;;;;;;;28.13;12.90;;;;;;;1.55;80.83;100893.32;1459928;87;21634;-81
2021/12/19 02:39:45;;;;;;;23.70;13.23;;;;;;;1.50;81.10;100884.45;1479399;87;22495;-81
2021/12/19 02:50:11;;;;;;;25.47;13.30;;;;;;;1.46;81.02;100870.32;1480991;87;21641;-81
2021/12/19 02:52:39;;;;;;;20.13;12.57;;;;;;;1.45;81.34;100869.48;1476277;87;21677;-81
2021/12/19 02:55:07;;;;;;;25.97;14.27;;;;;;;1.47;81.16;100858.98;1483507;88;21788;-81
2021/12/19 02:57:37;;;;;;;24.70;15.90;;;;;;;1.49;81.34;100862.33;1477463;87;21780;-80
2021/12/19 03:00:12;;;;;;;23.43;13.40;;;;;;;1.48;81.00;100856.28;1471455;87;22583;-80
2021/12/19 03:02:39;;;;;;;22.37;13.53;;;;;;;1.52;80.83;100850.44;1486501;88;21634;-81
2021/12/19 03:05:08;;;;;;;29.20;14.13;;;;;;;1.52;80.64;100849.97;1483642;88;21509;-81
2021/12/19 03:07:40;;;;;;;26.53;13.93;;;;;;;1.52;80.85;100842.61;1478402;88;21668;-81
2021/12/19 03:18:08;;;;;;;26.23;14.43;;;;;;;1.56;80.37;100840.24;1473958;87;21744;-80
2021/12/19 03:20:38;;;;;;;27.17;15.63;;;;;;;1.56;80.28;100855.89;1480321;87;21702;-81
2021/12/19 03:23:09;;;;;;;25.80;14.47;;;;;;;1.56;80.24;100853.28;1479259;88;21640;-81
2021/12/19 03:25:36;;;;;;;30.62;16.35;;;;;;;1.61;80.02;100839.52;1471327;88;21718;-81
2021/12/19 03:28:06;;;;;;;26.70;14.43;;;;;;;1.63;79.94;100825.94;1480554;88;21360;-81
2021/12/19 03:30:36;;;;;;;26.33;13.60;;;;;;;1.66;79.75;100816.64;1480205;88;22229;-81
2021/12/19 03:33:03;;;;;;;28.43;15.83;;;;;;;1.64;79.71;100813.30;1473458;87;21562;-81
2021/12/19 03:35:31;;;;;;;25.30;16.13;;;;;;;1.67;79.66;100814.43;1482524;87;21679;-81
2021/12/19 03:38:01;;;;;;;27.73;14.27;;;;;;;1.67;79.52;100821.39;1483303;87;22515;-82
2021/12/19 03:40:36;;;;;;;28.38;16.05;;;;;;;1.71;79.49;100819.86;1480731;88;21672;-81
2021/12/19 03:43:08;;;;;;;26.57;15.07;;;;;;;1.73;79.34;100825.01;1479112;87;21410;-81
2021/12/19 03:45:37;;;;;;;28.30;14.07;;;;;;;1.70;79.31;100818.19;1482139;87;21706;-82
2021/12/19 03:48:08;;;;;;;23.03;14.90;;;;;;;1.72;79.31;100824.14;1481024;87;21691;-82
2021/12/19 03:50:34;;;;;;;25.45;14.55;;;;;;;1.72;79.33;100817.62;1484099;88;22625;-83
2021/12/19 03:53:02;;;;;;;31.17;15.77;;;;;;;1.70;79.29;100810.36;1472570;87;21418;-82
2021/12/19 03:55:30;;;;;;;23.47;14.17;;;;;;;1.68;79.51;100800.45;1461625;88;21639;-82
2021/12/19 03:57:58;;;;;;;27.57;16.00;;;;;;;1.64;79.73;100796.33;1473184;87;21581;-82
2021/12/19 04:00:27;;;;;;;29.00;14.73;;;;;;;1.63;79.84;100802.92;1481687;87;21709;-83
2021/12/19 04:02:59;;;;;;;26.17;14.80;;;;;;;1.60;80.05;100790.88;1479527;88;21770;-82
2021/12/19 04:05:28;;;;;;;29.87;16.30;;;;;;;1.59;80.02;100785.29;1488784;87;21688;-81
2021/12/19 04:07:55;;;;;;;27.17;15.30;;;;;;;1.59;80.29;100786.59;1485175;88;21641;-81
2021/12/19 04:10:24;;;;;;;26.37;15.87;;;;;;;1.56;80.56;100778.47;1474130;87;22121;-81
2021/12/19 04:12:51;;;;;;;27.60;15.43;;;;;;;1.53;80.75;100764.75;1467860;88;22210;-82
2021/12/19 04:15:18;;;;;;;29.50;15.53;;;;;;;1.54;80.68;100769.03;1477895;88;22618;-82
2021/12/19 04:17:45;;;;;;;26.73;15.57;;;;;;;1.53;80.65;100789.06;1479434;88;22439;-83
2021/12/19 04:20:15;;;;;;;25.53;14.80;;;;;;;1.50;80.58;100786.63;1482064;88;21614;-82
2021/12/19 04:22:44;;;;;;;24.00;14.37;;;;;;;1.49;80.94;100773.64;1475643;87;21613;-83
2021/12/19 04:25:12;;;;;;;28.53;16.00;;;;;;;1.46;80.95;100771.20;1489638;87;21769;-81
2021/12/19 04:27:40;;;;;;;26.90;15.60;;;;;;;1.46;80.75;100763.38;1481277;88;22599;-81
2021/12/19 04:30:11;;;;;;;26.67;15.93;;;;;;;1.42;81.24;100748.82;1476761;88;21770;-81
2021/12/19 04:32:42;;;;;;;25.43;16.23;;;;;;;1.40;81.29;100754.57;1490448;87;21491;-81
2021/12/19 04:35:10;;;;;;;31.00;15.90;;;;;;;1.38;81.14;100748.58;1469269;87;21854;-82
2021/12/19 04:59:07;;;;;;;26.20;16.02;;;;;;;1.44;81.45;100732.61;1434489;88;22009;-81
2021/12/19 05:04:10;;;;;;;24.57;15.77;;;;;;;1.39;81.36;100731.56;1476331;86;21764;-81
2021/12/19 05:14:47;;;;;;;29.00;16.47;;;;;;;1.23;82.99;100718.48;1479619;86;21606;-80
2021/12/19 05:17:16;;;;;;;29.47;15.90;;;;;;;1.22;82.81;100720.72;1481386;87;21785;-80
2021/12/19 05:19:50;;;;;;;35.63;18.07;;;;;;;1.23;82.51;100711.96;1477201;87;21749;-80
2021/12/19 05:22:14;;;;;;;25.70;16.40;;;;;;;1.21;82.99;100704.70;1480504;87;21757;-81
2021/12/19 05:24:49;;;;;;;36.33;20.20;;;;;;;1.19;83.09;100690.90;1486089;88;21691;-81
2021/12/19 05:27:13;;;;;;;30.03;18.80;;;;;;;1.19;83.07;100679.16;1476540;86;22602;-82
2021/12/19 05:29:40;;;;;;;34.23;19.23;;;;;;;1.18;83.42;100681.84;1483911;88;21639;-81
2021/12/19 05:32:08;;;;;;;29.87;18.53;;;;;;;1.15;84.17;100672.88;1481831;88;21536;-81
2021/12/19 05:34:36;;;;;;;34.37;16.87;;;;;;;1.14;83.70;100674.65;1478543;88;21691;-81
2021/12/19 05:45:22;;;;;;;36.07;18.13;;;;;;;1.18;83.26;100686.62;1478273;88;21602;-81
2021/12/19 05:47:51;;;;;;;28.50;17.57;;;;;;;1.18;83.26;100678.80;1485278;86;23630;-81
2021/12/19 05:50:22;;;;;;;28.40;18.00;;;;;;;1.17;83.37;100673.18;1465396;88;21824;-81
2021/12/19 05:52:50;;;;;;;28.83;17.23;;;;;;;1.16;83.10;100671.51;1480320;88;22634;-81
2021/12/19 05:55:20;;;;;;;24.47;15.33;;;;;;;1.18;82.89;100665.77;1479924;88;21544;-83
2021/12/19 05:57:47;;;;;;;32.57;17.97;;;;;;;1.12;83.48;100649.98;1483619;87;21571;-81
2021/12/19 06:00:18;;;;;;;26.33;15.93;;;;;;;1.08;83.30;100651.52;1477244;88;21713;-81
2021/12/19 06:02:46;;;;;;;23.27;15.30;;;;;;;1.05;83.33;100652.98;1483049;88;21680;-81
2021/12/19 06:05:13;;;;;;;23.13;15.63;;;;;;;1.00;83.67;100654.98;1482601;88;21382;-81
2021/12/19 06:07:41;;;;;;;27.40;14.93;;;;;;;0.95;83.90;100642.65;1478795;86;21618;-79
2021/12/19 06:10:11;;;;;;;31.27;17.87;;;;;;;0.89;83.96;100639.91;1477263;87;21639;-79
2021/12/19 06:12:39;;;;;;;32.90;15.97;;;;;;;0.86;83.90;100647.45;1480352;88;21491;-79
2021/12/19 06:15:09;;;;;;;27.83;16.63;;;;;;;0.81;84.61;100641.63;1470198;88;21606;-79
2021/12/19 06:17:39;;;;;;;25.25;15.93;;;;;;;0.78;84.55;100637.88;1469269;86;22649;-80
2021/12/19 06:20:09;;;;;;;32.40;17.47;;;;;;;0.75;84.81;100638.05;1473830;88;21618;-79
2021/12/19 06:22:39;;;;;;;32.03;16.93;;;;;;;0.74;84.41;100634.20;1470230;88;21548;-80
2021/12/19 06:25:08;;;;;;;26.63;17.23;;;;;;;0.73;84.33;100634.67;1473277;88;21886;-80
2021/12/19 06:27:35;;;;;;;30.53;17.83;;;;;;;0.71;84.28;100632.59;1473847;88;21852;-80
2021/12/19 06:30:06;;;;;;;36.03;20.30;;;;;;;0.70;84.12;100628.31;1467947;88;21787;-80
2021/12/19 06:32:33;;;;;;;38.73;21.10;;;;;;;0.68;84.13;100627.55;1488840;88;21621;-80
2021/12/19 06:35:06;;;;;;;53.20;24.53;;;;;;;0.67;84.08;100624.57;1474359;88;22440;-81
2021/12/19 06:37:29;;;;;;;53.13;24.90;;;;;;;0.65;83.93;100619.42;1474395;88;21589;-80
2021/12/19 06:39:56;;;;;;;40.83;21.23;;;;;;;0.65;84.05;100622.03;1483257;88;21528;-80
2021/12/19 06:42:23;;;;;;;40.10;20.70;;;;;;;0.67;83.89;100620.66;1485395;87;21655;-79
2021/12/19 06:44:50;;;;;;;38.33;20.10;;;;;;;0.68;83.92;100619.73;1480805;88;22111;-79
2021/12/19 06:47:17;;;;;;;32.90;18.20;;;;;;;0.66;83.73;100621.56;1482238;87;21551;-80
2021/12/19 06:49:44;;;;;;;32.53;17.23;;;;;;;0.64;84.22;100628.64;1471135;87;23425;-80
2021/12/19 06:52:11;;;;;;;28.03;17.30;;;;;;;0.64;84.06;100632.55;1473624;88;21744;-81
2021/12/19 06:54:38;;;;;;;36.77;19.60;;;;;;;0.67;83.82;100634.98;1481013;88;21531;-80
2021/12/19 06:57:06;;;;;;;37.43;18.67;;;;;;;0.68;83.94;100621.87;1481768;86;21513;-80
2021/12/19 06:59:33;;;;;;;31.80;16.40;;;;;;;0.66;84.19;100613.75;1488126;87;23437;-80
2021/12/19 07:02:00;;;;;;;29.17;16.23;;;;;;;0.66;84.29;100609.84;1476760;87;21656;-80
2021/12/19 07:04:27;;;;;;;29.63;17.00;;;;;;;0.66;84.29;100607.23;1487086;87;21788;-80
2021/12/19 07:06:54;;;;;;;29.60;15.37;;;;;;;0.69;84.33;100610.98;1474190;88;22708;-80
2021/12/19 07:09:21;;;;;;;27.93;15.53;;;;;;;0.73;84.35;100598.19;1481450;88;22635;-80
2021/12/19 07:11:49;;;;;;;31.20;16.23;;;;;;;0.76;84.46;100583.70;1487676;86;22869;-80
2021/12/19 07:14:16;;;;;;;27.77;16.97;;;;;;;0.76;84.62;100566.77;1487736;87;21685;-79
2021/12/19 07:16:43;;;;;;;37.63;20.23;;;;;;;0.77;84.78;100541.08;1486823;87;22101;-79
2021/12/19 07:19:10;;;;;;;46.70;25.03;;;;;;;0.78;84.92;100527.15;1484804;86;21938;-79
2021/12/19 07:21:37;;;;;;;31.63;18.77;;;;;;;0.80;84.84;100536.17;1479677;87;21612;-82
2021/12/19 07:24:04;;;;;;;57.93;28.93;;;;;;;0.83;84.82;100552.47;1481258;86;21611;-81
2021/12/19 07:26:31;;;;;;;56.00;29.07;;;;;;;0.86;84.66;100548.42;1485699;86;22095;-82
2021/12/19 07:28:59;;;;;;;46.77;23.87;;;;;;;0.85;84.80;100542.81;1487701;86;21684;-81
2021/12/19 07:31:29;;;;;;;42.40;23.87;;;;;;;0.86;84.98;100556.24;1479797;86;22718;-85
2021/12/19 07:33:55;;;;;;;38.43;19.73;;;;;;;0.87;84.82;100552.70;1477468;87;22564;-82
2021/12/19 07:36:25;;;;;;;33.43;16.43;;;;;;;0.96;84.96;100573.98;1469512;87;21648;-82
2021/12/19 07:39:07;;;;;;;33.93;19.10;;;;;;;1.03;85.02;100572.25;1467014;88;21523;-82
2021/12/19 07:41:27;;;;;;;25.40;15.83;;;;;;;1.11;85.08;100565.33;1463466;88;21958;-90
2021/12/19 07:43:56;;;;;;;32.83;18.17;;;;;;;1.18;85.39;100569.30;1473522;87;21595;-92
2021/12/19 07:46:23;;;;;;;29.93;17.47;;;;;;;1.23;85.04;100579.45;1462489;88;21699;-91
2021/12/19 07:48:51;;;;;;;30.97;15.40;;;;;;;1.32;85.03;100585.02;1477342;88;23201;-88
2021/12/19 07:51:18;;;;;;;25.00;15.20;;;;;;;1.37;85.21;100573.48;1454091;88;22640;-91
2021/12/19 07:53:45;;;;;;;28.70;16.57;;;;;;;1.44;85.38;100572.20;1464669;87;21739;-92
2021/12/19 07:56:12;;;;;;;28.07;17.33;;;;;;;1.50;84.69;100581.02;1469234;88;21484;-91
2021/12/19 07:58:40;;;;;;;32.00;17.13;;;;;;;1.58;84.59;100587.48;1473731;88;21498;-86
2021/12/19 08:01:10;;;;;;;30.37;17.67;;;;;;;1.67;84.16;100581.34;1465735;88;21733;-85
2021/12/19 08:03:37;;;;;;;33.50;20.35;;;;;;;1.67;83.96;100576.98;1468924;87;21619;-86
2021/12/19 08:06:04;;;;;;;37.37;19.93;;;;;;;1.68;83.68;100579.13;1422688;89;21398;-84
2021/12/19 08:08:33;;;;;;;31.10;19.23;;;;;;;1.64;83.71;100588.91;1465504;89;21578;-84
2021/12/19 08:13:47;;;;;;;57.30;29.57;;;;;;;1.57;84.09;100558.86;1453317;89;22675;-83
2021/12/19 08:16:14;;;;;;;44.37;23.90;;;;;;;1.50;84.40;100545.80;1447901;89;21614;-83
2021/12/19 08:18:41;;;;;;;41.00;24.77;;;;;;;1.50;84.45;100541.89;1455576;89;21533;-83
2021/12/19 08:21:08;;;;;;;31.43;19.27;;;;;;;1.46;84.97;100529.45;1465366;87;21613;-83
2021/12/19 08:23:36;;;;;;;38.63;21.23;;;;;;;1.50;84.88;100540.11;1482727;88;21678;-84
2021/12/19 08:26:04;;;;;;;33.87;20.67;;;;;;;1.48;85.27;100538.52;1467108;88;21677;-83
2021/12/19 08:28:32;;;;;;;41.87;22.20;;;;;;;1.53;85.01;100537.80;1470967;88;21630;-84
2021/12/19 08:31:00;;;;;;;33.50;20.17;;;;;;;1.56;85.02;100527.19;1476985;88;21609;-83
2021/12/19 08:33:27;;;;;;;41.47;20.87;;;;;;;1.56;85.44;100520.66;1479151;88;21613;-83
2021/12/19 08:35:54;;;;;;;29.90;18.30;;;;;;;1.56;85.41;100509.76;1459513;88;22625;-83
2021/12/19 08:38:22;;;;;;;31.53;19.10;;;;;;;1.62;85.42;100516.86;1460091;88;21648;-83
2021/12/19 08:40:51;;;;;;;36.77;22.43;;;;;;;1.65;85.61;100513.61;1465086;88;21541;-83
2021/12/19 08:43:19;;;;;;;34.60;20.47;;;;;;;1.70;85.54;100512.88;1468045;88;21688;-83
2021/12/19 08:45:47;;;;;;;36.83;21.37;;;;;;;1.77;85.71;100510.28;1472704;88;21687;-83
2021/12/19 08:48:17;;;;;;;31.83;20.73;;;;;;;1.83;85.33;100519.52;1461956;88;21695;-83
2021/12/19 08:50:45;;;;;;;33.33;20.97;;;;;;;1.92;85.45;100520.75;1459532;89;21877;-84
2021/12/19 08:53:13;;;;;;;32.67;18.97;;;;;;;1.95;85.10;100507.52;1475547;88;21799;-84
2021/12/19 08:55:40;;;;;;;35.63;20.67;;;;;;;1.97;84.88;100507.81;1453934;89;21659;-84
2021/12/19 08:58:07;;;;;;;39.43;20.90;;;;;;;2.05;84.84;100506.06;1463475;89;21577;-83
2021/12/19 09:00:35;;;;;;;35.70;19.83;;;;;;;2.06;84.71;100494.67;1458626;88;21807;-84
2021/12/19 09:03:03;;;;;;;36.37;20.93;;;;;;;2.26;84.37;100486.95;1444787;88;22757;-83
2021/12/19 09:05:31;;;;;;;36.50;23.63;;;;;;;2.26;84.37;100486.95;1463118;88;21759;-84
2021/12/19 09:07:58;;;;;;;37.30;22.63;;;;;;;2.34;84.37;100477.35;1464658;88;21847;-84
2021/12/19 09:10:26;;;;;;;43.67;21.23;;;;;;;2.39;84.00;100475.30;1458978;88;21772;-83
2021/12/19 09:12:54;;;;;;;39.00;21.90;;;;;;;2.42;83.87;100472.03;1470092;88;21653;-84
2021/12/19 09:15:21;;;;;;;39.83;22.73;;;;;;;2.43;83.72;100463.25;1482888;87;21790;-84
2021/12/19 09:17:49;;;;;;;37.33;21.77;;;;;;;2.38;83.95;100439.17;1476142;88;21780;-85
2021/12/19 09:20:17;;;;;;;33.37;21.53;;;;;;;2.38;83.95;100439.17;1470895;88;21867;-84
2021/12/19 09:22:44;;;;;;;33.90;21.33;;;;;;;2.48;83.71;100440.30;1476357;88;22704;-84
2021/12/19 09:25:12;;;;;;;40.97;23.23;;;;;;;2.42;83.67;100438.55;1472816;87;21888;-84
2021/12/19 09:27:39;;;;;;;35.33;21.90;;;;;;;2.35;83.73;100428.92;1471378;88;21757;-84
2021/12/19 09:30:07;;;;;;;37.10;22.53;;;;;;;2.32;83.93;100423.05;1467870;88;21737;-84
2021/12/19 09:32:35;;;;;;;39.67;23.50;;;;;;;2.39;83.71;100416.06;1480136;87;21831;-84
2021/12/19 09:35:02;;;;;;;33.57;21.10;;;;;;;2.44;83.86;100407.92;1467664;88;21811;-84
2021/12/19 09:37:30;;;;;;;37.90;23.37;;;;;;;2.44;83.86;100407.92;1471689;86;21864;-84
2021/12/19 09:40:01;;;;;;;39.87;22.60;;;;;;;2.49;84.01;100400.64;1478866;87;22029;-84
2021/12/19 09:42:33;;;;;;;43.43;23.77;;;;;;;2.53;84.04;100392.96;1474658;87;21731;-84
2021/12/19 09:44:55;;;;;;;37.10;21.87;;;;;;;2.53;84.04;100392.96;1480860;87;21938;-85
2021/12/19 09:47:22;;;;;;;36.60;23.23;;;;;;;2.58;83.91;100397.44;1484148;88;22748;-85
2021/12/19 09:49:51;;;;;;;37.40;23.23;;;;;;;2.65;83.95;100386.98;1462808;88;21966;-84
2021/12/19 09:52:18;;;;;;;37.10;22.37;;;;;;;2.65;83.95;100386.98;1481005;86;22075;-84
2021/12/19 09:54:46;;;;;;;42.13;24.67;;;;;;;2.72;83.35;100379.58;1484169;86;21803;-84
2021/12/19 09:57:13;;;;;;;59.20;28.87;;;;;;;2.72;83.29;100376.97;1479938;88;21872;-84
2021/12/19 09:59:40;;;;;;;42.77;26.13;;;;;;;2.68;82.86;100384.17;1476377;88;21894;-84
2021/12/19 10:02:07;;;;;;;52.73;29.67;;;;;;;2.68;82.86;100384.17;1469841;88;22690;-84
2021/12/19 10:04:39;;;;;;;47.90;25.70;;;;;;;2.81;83.56;100397.75;1477923;88;22732;-84
2021/12/19 10:07:29;;;;;;;37.53;23.83;;;;;;;2.81;83.56;100397.75;1473353;88;21836;-85
2021/12/19 10:10:10;;;;;;;42.97;23.70;;;;;;;2.93;82.92;100398.26;1476440;88;21866;-84
2021/12/19 10:15:18;;;;;;;52.77;30.50;;;;;;;3.00;82.91;100400.03;1470091;88;21807;-84
2021/12/19 10:17:47;;;;;;;49.00;29.50;;;;;;;3.00;82.91;100400.03;1463271;88;22035;-85
2021/12/19 10:20:16;;;;;;;37.70;24.20;;;;;;;3.03;82.20;100399.35;1480079;87;22258;-84
2021/12/19 10:22:47;;;;;;;41.53;25.00;;;;;;;3.05;82.26;100409.25;1481233;88;22111;-84
2021/12/19 10:25:27;;;;;;;52.70;26.15;;;;;;;3.05;82.26;100409.25;1476793;88;22120;-84
2021/12/19 10:28:03;;;;;;;36.00;23.60;;;;;;;3.03;81.90;100408.98;1479542;86;21485;-85
2021/12/19 10:30:36;;;;;;;47.50;25.57;;;;;;;3.05;82.07;100404.47;1461525;88;22199;-85
2021/12/19 10:33:13;;;;;;;46.10;25.23;;;;;;;3.10;82.11;100399.30;1486911;87;23017;-85
2021/12/19 10:35:49;;;;;;;39.13;23.17;;;;;;;3.13;82.15;100400.41;1478493;87;22359;-86
2021/12/19 10:38:33;;;;;;;41.10;23.93;;;;;;;3.25;81.93;100414.93;1456885;88;22090;-82
2021/12/19 10:41:33;;;;;;;44.47;23.60;;;;;;;3.34;81.86;100413.04;1489366;88;22001;-85
2021/12/19 10:44:01;;;;;;;61.23;30.03;;;;;;;3.34;81.86;100413.04;1473934;86;23310;-83
2021/12/19 10:46:41;;;;;;;75.57;43.20;;;;;;;3.32;81.40;100401.83;1473248;88;22396;-83
2021/12/19 10:49:22;;;;;;;176.87;89.33;;;;;;;3.34;81.51;100402.10;1478507;87;22134;-82
2021/12/19 10:51:51;;;;;;;71.50;38.13;;;;;;;3.33;81.26;100398.27;1480770;88;22690;-83
2021/12/19 10:54:18;;;;;;;53.23;28.87;;;;;;;3.32;81.15;100395.30;1484513;87;22131;-84
2021/12/19 10:56:45;;;;;;;80.77;45.60;;;;;;;3.34;81.42;100390.33;1483550;87;22219;-84
2021/12/19 10:59:16;;;;;;;131.57;69.40;;;;;;;3.37;81.31;100391.43;1482765;88;24150;-83
2021/12/19 11:01:48;;;;;;;137.47;69.43;;;;;;;3.36;81.17;100383.67;1557888;86;21960;-83
2021/12/19 11:04:21;;;;;;;69.20;36.60;;;;;;;3.33;80.99;100389.11;1414801;88;22186;-84
2021/12/19 11:06:52;;;;;;;54.40;32.03;;;;;;;3.30;81.14;100384.08;1564416;86;22050;-84
2021/12/19 11:09:23;;;;;;;62.93;34.53;;;;;;;3.29;81.33;100378.49;1556217;86;22103;-84
2021/12/19 11:12:06;;;;;;;44.90;26.73;;;;;;;3.30;81.28;100374.92;1564759;86;21352;-84
2021/12/19 11:14:41;;;;;;;52.23;32.27;;;;;;;3.30;81.21;100373.62;1543828;89;23457;-83
2021/12/19 11:17:25;;;;;;;48.67;27.93;;;;;;;3.28;81.30;100357.18;1435991;89;21990;-84
2021/12/19 11:19:55;;;;;;;52.83;27.43;;;;;;;3.31;81.30;100362.20;1549726;88;21960;-84
2021/12/19 11:22:26;;;;;;;52.25;29.50;;;;;;;3.39;81.60;100357.30;1401045;87;23087;-84
2021/12/19 11:24:59;;;;;;;;;;;;;;;3.38;81.29;100354.33;1529652;86;21338;-84
2021/12/19 11:27:28;;;;;;;61.43;29.20;;;;;;;3.35;81.12;100348.83;1420698;88;20289;-84
2021/12/19 11:29:57;;;;;;;47.83;28.60;;;;;;;3.33;81.09;100346.78;1480031;87;22027;-84
2021/12/19 11:33:14;;;;;;;49.57;29.20;;;;;;;3.34;81.24;100341.10;1535345;86;22965;-84
2021/12/19 11:35:47;;;;;;;51.50;27.43;;;;;;;3.33;81.24;100329.77;1403022;89;21937;-84
2021/12/19 11:38:19;;;;;;;47.47;27.10;;;;;;;3.28;81.32;100321.87;1429219;86;22057;-84
2021/12/19 11:40:47;;;;;;;60.20;27.17;;;;;;;3.22;81.55;100306.11;1540358;86;21975;-84
2021/12/19 11:43:14;;;;;;;54.87;26.47;;;;;;;3.25;81.53;100301.15;1443600;87;21917;-84
2021/12/19 11:45:52;;;;;;;55.87;31.20;;;;;;;3.26;81.60;100278.00;1478604;86;22098;-84
2021/12/19 11:51:03;;;;;;;51.60;31.63;;;;;;;3.22;81.67;100258.20;1517478;86;22275;-84
2021/12/19 11:53:41;;;;;;;51.53;28.77;;;;;;;3.19;81.90;100245.34;1481734;88;22057;-84
2021/12/19 11:56:14;;;;;;;47.70;26.93;;;;;;;3.17;82.14;100232.38;1470215;86;21447;-84
2021/12/19 11:58:47;;;;;;;47.37;28.73;;;;;;;3.18;82.00;100227.98;1485351;86;22101;-84
2021/12/19 12:01:24;;;;;;;57.77;29.20;;;;;;;3.12;81.94;100224.01;1489575;88;22078;-84
2021/12/19 12:04:03;;;;;;;54.97;29.80;;;;;;;3.09;82.29;100217.20;1474402;88;22338;-85
2021/12/19 12:06:37;;;;;;;54.83;28.30;;;;;;;2.98;83.16;100207.12;1460177;88;22131;-85
2021/12/19 12:09:16;;;;;;;48.97;27.40;;;;;;;2.98;83.16;100207.12;1486009;88;22078;-84
2021/12/19 12:12:08;;;;;;;43.87;26.23;;;;;;;2.94;83.60;100199.96;1487238;88;22240;-84
2021/12/19 12:14:39;;;;;;;;;;;;;;;2.94;83.60;100199.96;1488913;87;23023;-84
2021/12/19 12:17:21;;;;;;;56.05;30.27;;;;;;;2.94;83.84;100202.58;1480168;88;20364;-84
2021/12/19 12:19:53;;;;;;;55.80;30.60;;;;;;;2.99;84.15;100193.92;1488298;87;22594;-84
2021/12/19 12:22:29;;;;;;;62.27;27.57;;;;;;;3.01;84.29;100188.60;1482047;88;23304;-84
2021/12/19 12:25:12;;;;;;;50.30;27.13;;;;;;;3.01;84.29;100188.60;1481660;87;22205;-85
2021/12/19 12:27:48;;;;;;;51.53;28.97;;;;;;;3.00;83.99;100182.55;1477927;87;23044;-85
2021/12/19 12:30:26;;;;;;;53.63;31.37;;;;;;;3.08;84.02;100180.24;1486175;86;22271;-84
2021/12/19 12:32:57;;;;;;;56.77;32.73;;;;;;;3.09;84.26;100162.30;1463177;89;22256;-83
2021/12/19 12:35:25;;;;;;;55.00;30.10;;;;;;;3.05;84.34;100162.16;1476043;88;22109;-85
2021/12/19 12:37:54;;;;;;;55.07;30.13;;;;;;;3.04;84.58;100174.84;1476303;88;21438;-84
2021/12/19 12:40:33;;;;;;;53.90;28.50;;;;;;;2.95;84.96;100174.17;1486125;88;21991;-83
2021/12/19 12:43:23;;;;;;;57.63;30.93;;;;;;;2.85;84.86;100167.89;1476521;88;22205;-84
2021/12/19 12:49:34;;;;;;;48.97;26.27;;;;;;;2.73;86.29;100145.20;1473189;88;22107;-84
2021/12/19 12:52:04;;;;;;;48.57;29.77;;;;;;;2.65;86.87;100133.52;1484014;88;23179;-84
2021/12/19 12:54:38;;;;;;;46.57;27.27;;;;;;;2.72;86.79;100140.45;1478797;87;21844;-85
2021/12/19 12:57:11;;;;;;;49.80;29.50;;;;;;;2.74;87.59;100140.37;1474107;86;21954;-84
2021/12/19 12:59:41;;;;;;;48.53;28.87;;;;;;;2.74;87.59;100140.37;1480869;88;22178;-84
2021/12/19 13:02:19;;;;;;;47.93;27.35;;;;;;;2.67;87.85;100128.16;1470767;87;22839;-85
2021/12/19 13:04:50;;;;;;;48.60;27.17;;;;;;;2.70;87.76;100126.20;1478526;88;21542;-84
2021/12/19 13:07:24;;;;;;;50.47;27.03;;;;;;;2.66;87.71;100111.66;1488682;88;21843;-85
2021/12/19 13:10:00;;;;;;;58.30;30.43;;;;;;;2.70;87.97;100117.05;1479837;88;22107;-85